Time;durP1;ratioP1;P1;durP2;ratioP2;P2;SDS_P1;SDS_P2;PMS_P1;PMS_P2;Temp;Humidity;BMP_temperature;BMP_pressure;BME280_temperature;BME280_humidity;BME280_pressure;Samples;Min_cycle;Max_cycle;Signal;HPM_P1;HPM_P2
2023/10/07 04:08:54;;;;;;;0.30;0.30;;;7.90;99.90;;;;;;5032987;28;20647;-64
2023/10/07 04:11:28;;;;;;;0.30;0.30;;;7.90;99.90;;;;;;5016783;28;20227;-63
2023/10/07 04:13:55;;;;;;;0.30;0.30;;;7.80;99.90;;;;;;5034530;28;20170;-63
2023/10/07 04:16:25;;;;;;;0.30;0.30;;;7.80;99.90;;;;;;5049498;28;20192;-63
2023/10/07 04:19:14;;;;;;;0.50;0.50;;;7.80;99.90;;;;;;5036390;28;20173;-63
2023/10/07 04:21:40;;;;;;;0.40;0.40;;;7.80;99.90;;;;;;5054411;28;20180;-63
2023/10/07 04:24:09;;;;;;;0.40;0.40;;;7.70;99.90;;;;;;5053928;28;20650;-63
2023/10/07 04:26:39;;;;;;;0.30;0.30;;;7.70;99.90;;;;;;5053895;28;20188;-63
2023/10/07 04:29:07;;;;;;;0.30;0.30;;;7.70;99.90;;;;;;5054267;28;20197;-63
2023/10/07 04:31:37;;;;;;;0.30;0.30;;;7.70;99.90;;;;;;5054052;28;20177;-64
2023/10/07 04:34:11;;;;;;;1.63;1.38;;;7.70;99.90;;;;;;5054082;28;20166;-64
2023/10/07 04:37:01;;;;;;;0.30;0.30;;;7.70;99.90;;;;;;5053438;28;20191;-63
2023/10/07 04:39:28;;;;;;;0.30;0.30;;;7.70;99.90;;;;;;5054003;28;20187;-63
2023/10/07 04:41:58;;;;;;;0.30;0.30;;;7.70;99.90;;;;;;5054176;28;20200;-63
2023/10/07 04:52:30;;;;;;;0.30;0.30;;;7.70;99.90;;;;;;5053939;28;20566;-63
2023/10/07 04:54:59;;;;;;;0.30;0.30;;;7.60;99.90;;;;;;5053367;28;20216;-63
2023/10/07 04:57:44;;;;;;;0.30;0.30;;;7.60;99.90;;;;;;5053703;28;20171;-63
2023/10/07 05:03:19;;;;;;;0.30;0.30;;;7.60;99.90;;;;;;5053742;28;20344;-63
2023/10/07 05:05:44;;;;;;;0.30;0.30;;;7.60;99.90;;;;;;5035326;28;20299;-63
2023/10/07 05:08:11;;;;;;;0.30;0.30;;;7.60;99.90;;;;;;5053532;28;20266;-63
2023/10/07 05:10:41;;;;;;;0.40;0.40;;;7.60;99.90;;;;;;5053531;28;20259;-63
2023/10/07 05:13:07;;;;;;;0.30;0.30;;;7.50;99.90;;;;;;5053505;28;20168;-64
2023/10/07 05:15:36;;;;;;;0.35;0.35;;;7.50;99.90;;;;;;5053036;28;20196;-63
2023/10/07 05:18:03;;;;;;;0.30;0.30;;;7.50;99.90;;;;;;5054153;28;20570;-62
2023/10/07 05:20:32;;;;;;;0.30;0.30;;;7.50;99.90;;;;;;5053173;28;20181;-64
2023/10/07 05:23:00;;;;;;;0.30;0.30;;;7.40;99.90;;;;;;5053240;28;20220;-63
2023/10/07 05:25:26;;;;;;;0.30;0.30;;;7.40;99.90;;;;;;5052786;28;20270;-63
2023/10/07 05:27:51;;;;;;;0.30;0.30;;;7.40;99.90;;;;;;5035590;28;20690;-65
2023/10/07 05:30:18;;;;;;;0.30;0.30;;;7.40;99.90;;;;;;5053361;28;20193;-64
2023/10/07 05:32:45;;;;;;;0.30;0.30;;;7.30;99.90;;;;;;5053095;28;20183;-64
2023/10/07 05:35:14;;;;;;;0.40;0.40;;;7.30;99.90;;;;;;5052865;28;20662;-64
2023/10/07 05:37:41;;;;;;;0.30;0.30;;;7.30;99.90;;;;;;5053480;28;20184;-63
2023/10/07 05:40:08;;;;;;;0.45;0.45;;;7.30;99.90;;;;;;5053368;28;20174;-64
2023/10/07 05:42:33;;;;;;;0.30;0.30;;;7.30;99.90;;;;;;5035140;28;20649;-64
2023/10/07 05:44:59;;;;;;;0.90;0.90;;;7.30;99.90;;;;;;5052603;28;20206;-63
2023/10/07 05:47:25;;;;;;;0.40;0.40;;;7.30;99.90;;;;;;5053262;28;20185;-64
2023/10/07 05:49:55;;;;;;;0.30;0.30;;;7.30;99.90;;;;;;5053039;28;20215;-63
2023/10/07 05:52:21;;;;;;;0.30;0.30;;;7.30;99.90;;;;;;5035341;28;20169;-64
2023/10/07 05:54:46;;;;;;;0.40;0.40;;;7.40;99.90;;;;;;5052522;28;20196;-63
2023/10/07 05:57:13;;;;;;;0.30;0.30;;;7.40;99.90;;;;;;5071393;28;20190;-64
2023/10/07 05:59:42;;;;;;;0.30;0.30;;;7.50;99.90;;;;;;5073287;28;20279;-64
2023/10/07 06:02:12;;;;;;;0.30;0.30;;;7.60;99.90;;;;;;5073965;28;20199;-64
2023/10/07 06:04:39;;;;;;;0.30;0.30;;;7.60;99.90;;;;;;5076815;28;20200;-65
2023/10/07 06:07:07;;;;;;;0.40;0.40;;;7.70;99.90;;;;;;5076891;28;20208;-64
2023/10/07 06:09:34;;;;;;;0.30;0.30;;;7.80;99.90;;;;;;5076704;28;20220;-65
2023/10/07 06:11:59;;;;;;;0.40;0.40;;;8.00;99.90;;;;;;5058602;28;20639;-65
2023/10/07 06:14:25;;;;;;;0.30;0.30;;;8.10;99.90;;;;;;5057228;28;20170;-64
2023/10/07 06:16:54;;;;;;;0.30;0.30;;;8.10;99.90;;;;;;5056788;28;20164;-64
2023/10/07 06:19:19;;;;;;;0.30;0.30;;;8.30;99.90;;;;;;5056888;28;20169;-62
2023/10/07 06:21:51;;;;;;;0.30;0.30;;;8.50;99.90;;;;;;5056736;28;20184;-64
2023/10/07 06:24:21;;;;;;;0.30;0.20;;;8.70;99.90;;;;;;5056714;28;20641;-63
2023/10/07 06:26:48;;;;;;;0.30;0.30;;;8.80;99.90;;;;;;5065759;28;20562;-62
2023/10/07 06:29:18;;;;;;;0.30;0.30;;;8.90;99.90;;;;;;5056447;28;20245;-65
2023/10/07 06:31:49;;;;;;;0.30;0.30;;;9.00;99.90;;;;;;5056401;28;20172;-64
2023/10/07 06:34:15;;;;;;;0.30;0.30;;;9.20;99.90;;;;;;5056068;28;20158;-63
2023/10/07 06:36:41;;;;;;;0.40;0.40;;;9.40;99.90;;;;;;5055757;28;20220;-61
2023/10/07 06:39:09;;;;;;;0.30;0.30;;;9.50;99.90;;;;;;5056480;28;20206;-61
2023/10/07 06:41:36;;;;;;;0.30;0.30;;;9.70;99.90;;;;;;5075265;28;20187;-60
2023/10/07 06:44:08;;;;;;;1.30;1.20;;;9.60;99.90;;;;;;5075810;28;20290;-62
2023/10/07 06:46:40;;;;;;;0.30;0.30;;;9.60;99.90;;;;;;5075730;28;20519;-62
2023/10/07 06:49:18;;;;;;;0.40;0.40;;;9.50;99.90;;;;;;5075676;28;20710;-64
2023/10/07 06:51:54;;;;;;;0.30;0.30;;;9.50;99.90;;;;;;5076025;28;20207;-61
2023/10/07 06:54:25;;;;;;;0.30;0.30;;;9.50;99.90;;;;;;5075433;28;20176;-61
2023/10/07 06:56:54;;;;;;;0.30;0.20;;;9.50;99.90;;;;;;5075889;28;20191;-62
2023/10/07 06:59:27;;;;;;;0.30;0.30;;;9.80;99.90;;;;;;5075814;28;20188;-62
2023/10/07 07:01:54;;;;;;;0.30;0.30;;;10.30;99.90;;;;;;5075600;28;20265;-65
2023/10/07 07:04:21;;;;;;;0.30;0.30;;;10.90;99.90;;;;;;5075574;28;20245;-64
2023/10/07 07:06:57;;;;;;;2.40;0.70;;;11.30;99.90;;;;;;5075575;28;20520;-64
2023/10/07 07:09:41;;;;;;;0.30;0.30;;;11.90;99.90;;;;;;5057968;28;20461;-62
2023/10/07 07:12:09;;;;;;;0.50;0.50;;;12.50;99.90;;;;;;5055155;28;20773;-62
2023/10/07 07:14:35;;;;;;;0.30;0.20;;;13.60;99.90;;;;;;5053560;28;20771;-65
2023/10/07 07:22:38;;;;;;;0.30;0.30;;;16.80;99.90;;;;;;5059915;28;20423;-63
2023/10/07 07:25:10;;;;;;;1.57;1.03;;;16.90;99.90;;;;;;5074780;28;20503;-64
2023/10/07 07:27:45;;;;;;;0.40;0.30;;;17.10;99.90;;;;;;5075362;28;20944;-65
2023/10/07 07:30:19;;;;;;;0.30;0.20;;;17.00;99.90;;;;;;5075362;28;20533;-66
2023/10/07 07:32:55;;;;;;;0.30;0.30;;;17.00;99.90;;;;;;5074745;28;20464;-66
2023/10/07 07:35:39;;;;;;;0.60;0.40;;;16.80;99.90;;;;;;5074417;28;20509;-63
2023/10/07 07:38:11;;;;;;;0.30;0.27;;;17.00;99.90;;;;;;5070028;28;20442;-64
2023/10/07 07:40:41;;;;;;;0.37;0.37;;;17.00;99.90;;;;;;5075095;28;20393;-62
2023/10/07 07:43:07;;;;;;;0.30;0.30;;;16.80;99.90;;;;;;5072389;28;20457;-63
2023/10/07 07:45:35;;;;;;;0.30;0.30;;;16.50;99.90;;;;;;5054892;28;20447;-63
2023/10/07 07:48:04;;;;;;;0.33;0.30;;;16.60;99.90;;;;;;5054300;28;20489;-63
2023/10/07 07:50:35;;;;;;;0.43;0.43;;;17.10;99.90;;;;;;5052997;28;20465;-61
2023/10/07 07:53:07;;;;;;;0.30;0.30;;;17.90;99.90;;;;;;5053579;28;20792;-65
2023/10/07 07:55:43;;;;;;;0.30;0.30;;;18.70;97.90;;;;;;5052780;28;20422;-63
2023/10/07 07:58:10;;;;;;;0.70;0.70;;;19.50;96.10;;;;;;5062102;28;20451;-63
2023/10/07 08:00:44;;;;;;;0.50;0.50;;;20.30;96.00;;;;;;5055791;28;20900;-64
2023/10/07 08:03:10;;;;;;;0.40;0.40;;;21.20;93.90;;;;;;5052723;28;20432;-64
2023/10/07 08:05:39;;;;;;;0.30;0.30;;;21.70;92.30;;;;;;5052161;28;20445;-65
2023/10/07 08:08:18;;;;;;;0.60;0.30;;;22.30;91.30;;;;;;5052388;28;20443;-64
2023/10/07 08:10:44;;;;;;;0.83;0.60;;;22.90;90.30;;;;;;5052424;28;20463;-65
2023/10/07 08:13:10;;;;;;;0.70;0.47;;;23.50;90.10;;;;;;5052500;28;20418;-63
2023/10/07 08:15:41;;;;;;;0.40;0.40;;;24.20;89.70;;;;;;5053833;28;20434;-62
2023/10/07 08:18:09;;;;;;;0.30;0.30;;;25.10;86.40;;;;;;5054229;28;20686;-62
2023/10/07 08:20:38;;;;;;;0.30;0.30;;;25.70;81.10;;;;;;5054250;28;20507;-62
2023/10/07 08:23:07;;;;;;;1.07;0.97;;;25.30;81.00;;;;;;5054270;28;20860;-63
2023/10/07 08:25:49;;;;;;;1.03;0.50;;;24.60;81.60;;;;;;5053260;28;20463;-62
2023/10/07 08:28:18;;;;;;;0.77;0.77;;;23.60;83.50;;;;;;5054238;28;20502;-62
2023/10/07 08:30:46;;;;;;;0.67;0.67;;;22.90;85.70;;;;;;5053948;28;20497;-62
2023/10/07 08:33:22;;;;;;;0.33;0.33;;;22.50;86.80;;;;;;5053803;28;20382;-61
2023/10/07 08:35:49;;;;;;;0.83;0.83;;;22.10;88.20;;;;;;5053388;28;20805;-62
2023/10/07 08:38:29;;;;;;;0.73;0.50;;;21.70;88.50;;;;;;5053885;28;20759;-62
2023/10/07 08:41:04;;;;;;;0.30;0.30;;;21.30;90.10;;;;;;5053804;28;20371;-61
2023/10/07 08:43:40;;;;;;;0.80;0.40;;;21.10;91.40;;;;;;5053883;28;20400;-61
2023/10/07 08:46:09;;;;;;;0.30;0.30;;;21.60;91.50;;;;;;5053489;28;20940;-61
2023/10/07 08:48:38;;;;;;;0.60;0.60;;;22.70;90.30;;;;;;5053543;28;20507;-62
2023/10/07 08:51:14;;;;;;;0.70;0.70;;;23.90;87.40;;;;;;5053876;28;20912;-62
2023/10/07 08:53:40;;;;;;;0.60;0.60;;;24.50;85.40;;;;;;5053437;28;20393;-64
2023/10/07 08:56:10;;;;;;;0.50;0.50;;;24.70;84.30;;;;;;5035406;28;20398;-62
2023/10/07 08:58:41;;;;;;;0.30;0.20;;;24.40;84.40;;;;;;5052579;28;20493;-66
2023/10/07 09:01:16;;;;;;;1.00;0.63;;;23.90;85.10;;;;;;5053301;28;20487;-62
2023/10/07 09:03:47;;;;;;;0.30;0.30;;;23.40;84.00;;;;;;5053363;28;20927;-61
2023/10/07 09:06:13;;;;;;;0.30;0.30;;;23.00;84.30;;;;;;5053397;28;20981;-64
2023/10/07 09:08:39;;;;;;;0.77;0.43;;;22.70;83.70;;;;;;5053210;28;20463;-63
2023/10/07 09:11:08;;;;;;;0.40;0.40;;;22.50;84.50;;;;;;5053339;28;20508;-64
2023/10/07 09:13:38;;;;;;;0.43;0.43;;;22.20;86.20;;;;;;5052997;28;20681;-62
2023/10/07 09:16:07;;;;;;;0.30;0.30;;;21.80;89.40;;;;;;5035158;28;20442;-63
2023/10/07 09:18:39;;;;;;;0.30;0.20;;;21.50;90.10;;;;;;5053034;28;20408;-60
2023/10/07 09:21:22;;;;;;;0.50;0.50;;;21.20;90.50;;;;;;5053144;28;20421;-62
2023/10/07 09:23:59;;;;;;;0.30;0.30;;;20.90;91.30;;;;;;5052653;28;20867;-65
2023/10/07 09:26:36;;;;;;;0.40;0.37;;;20.70;91.80;;;;;;5053275;28;20759;-63
2023/10/07 09:29:15;;;;;;;0.30;0.30;;;20.60;92.00;;;;;;5053193;28;20573;-65
2023/10/07 09:31:45;;;;;;;0.30;0.30;;;20.50;92.00;;;;;;5052944;28;20416;-63
2023/10/07 09:34:29;;;;;;;0.60;0.60;;;20.40;92.10;;;;;;5034834;28;20420;-64
2023/10/07 09:36:57;;;;;;;0.30;0.30;;;20.20;92.40;;;;;;5052349;28;20451;-65
2023/10/07 09:39:43;;;;;;;0.30;0.20;;;20.10;92.60;;;;;;5052845;28;20404;-64
2023/10/07 09:42:25;;;;;;;0.50;0.50;;;20.00;92.20;;;;;;5052599;28;20441;-65
2023/10/07 09:44:55;;;;;;;0.90;0.90;;;20.00;92.00;;;;;;5048998;28;20781;-61
2023/10/07 09:47:22;;;;;;;0.30;0.30;;;20.10;92.00;;;;;;5052900;28;20814;-61
2023/10/07 09:49:50;;;;;;;0.30;0.30;;;20.20;91.50;;;;;;5052749;28;20817;-63
2023/10/07 09:52:28;;;;;;;0.57;0.57;;;20.30;91.40;;;;;;5052521;28;20425;-62
2023/10/07 09:55:18;;;;;;;0.30;0.30;;;20.20;91.70;;;;;;5051168;28;20420;-63
2023/10/07 09:57:59;;;;;;;0.30;0.30;;;20.20;91.90;;;;;;5052980;28;20384;-61
2023/10/07 10:01:04;;;;;;;0.30;0.30;;;20.10;92.20;;;;;;5052764;28;20416;-61
2023/10/07 10:03:39;;;;;;;0.30;0.30;;;19.90;91.70;;;;;;5052275;28;20433;-63
2023/10/07 10:06:29;;;;;;;0.30;0.30;;;19.80;92.10;;;;;;5051394;28;20398;-61
2023/10/07 10:08:59;;;;;;;0.30;0.30;;;19.60;92.50;;;;;;5052681;28;20433;-61
2023/10/07 10:11:41;;;;;;;0.40;0.40;;;19.50;92.60;;;;;;5052213;28;20465;-63
2023/10/07 10:16:51;;;;;;;0.30;0.30;;;19.60;94.60;;;;;;5051894;28;20518;-61
2023/10/07 10:19:44;;;;;;;0.30;0.30;;;19.70;95.90;;;;;;5052328;28;20435;-62
2023/10/07 10:22:11;;;;;;;0.30;0.30;;;19.80;94.60;;;;;;5052417;28;20731;-60
2023/10/07 10:24:43;;;;;;;0.80;0.80;;;20.00;93.50;;;;;;5051779;28;20400;-59
2023/10/07 10:27:11;;;;;;;0.30;0.30;;;20.30;93.50;;;;;;5051869;28;20396;-59
2023/10/07 10:29:52;;;;;;;0.30;0.27;;;20.60;93.60;;;;;;5033471;28;21019;-60
2023/10/07 10:32:28;;;;;;;0.30;0.20;;;20.70;93.20;;;;;;5052129;28;20466;-60
2023/10/07 10:35:04;;;;;;;0.50;0.50;;;20.90;93.00;;;;;;5052351;28;20450;-60
2023/10/07 10:37:30;;;;;;;0.30;0.30;;;21.10;91.80;;;;;;5052636;28;20444;-59
2023/10/07 10:40:12;;;;;;;0.30;0.30;;;21.10;92.20;;;;;;5052508;28;20382;-60
2023/10/07 10:42:43;;;;;;;0.30;0.20;;;21.10;91.50;;;;;;5052069;28;20793;-59
2023/10/07 10:45:21;;;;;;;0.30;0.30;;;21.20;91.40;;;;;;5052024;28;20426;-60
2023/10/07 10:47:51;;;;;;;0.30;0.20;;;21.30;91.80;;;;;;5052303;28;20385;-60
2023/10/07 10:50:17;;;;;;;0.30;0.30;;;21.50;91.60;;;;;;5055837;28;20425;-60
2023/10/07 10:52:49;;;;;;;0.40;0.40;;;21.70;91.00;;;;;;5055171;28;20810;-60
2023/10/07 10:55:19;;;;;;;0.30;0.20;;;21.90;91.30;;;;;;5054576;28;20458;-61
2023/10/07 10:57:45;;;;;;;0.40;0.30;;;21.90;89.80;;;;;;5053683;28;20403;-60
2023/10/07 11:00:24;;;;;;;0.30;0.30;;;22.00;89.50;;;;;;5037437;28;20426;-60
2023/10/07 11:02:54;;;;;;;0.30;0.20;;;22.10;87.30;;;;;;5055409;28;20765;-60
2023/10/07 11:05:21;;;;;;;0.30;0.30;;;22.10;87.10;;;;;;5060072;28;20419;-61
2023/10/07 11:07:49;;;;;;;0.30;0.30;;;22.00;89.10;;;;;;5055047;28;20844;-60
2023/10/07 11:10:22;;;;;;;0.30;0.30;;;22.00;89.20;;;;;;5055392;28;20785;-60
2023/10/07 11:12:52;;;;;;;0.30;0.30;;;21.90;87.80;;;;;;5054978;28;20412;-60
2023/10/07 11:15:27;;;;;;;0.30;0.30;;;21.90;88.80;;;;;;5054922;28;20441;-63
2023/10/07 11:18:11;;;;;;;0.30;0.30;;;21.90;88.60;;;;;;5037555;28;20733;-61
2023/10/07 11:20:39;;;;;;;0.30;0.20;;;22.00;88.50;;;;;;5054651;28;20433;-61
2023/10/07 11:23:06;;;;;;;0.50;0.50;;;22.10;87.60;;;;;;5053135;28;20424;-61
2023/10/07 11:25:33;;;;;;;0.30;0.20;;;22.20;87.80;;;;;;5052618;28;20447;-61
2023/10/07 11:27:59;;;;;;;0.30;0.20;;;22.30;89.30;;;;;;5053106;28;20495;-60
2023/10/07 11:30:25;;;;;;;0.30;0.30;;;22.30;87.50;;;;;;5052907;28;20498;-61
2023/10/07 11:32:51;;;;;;;0.50;0.50;;;22.40;88.00;;;;;;5053417;28;20173;-60
2023/10/07 11:35:19;;;;;;;0.43;0.43;;;22.40;88.60;;;;;;5053097;28;20428;-60
2023/10/07 11:37:57;;;;;;;0.30;0.20;;;22.40;87.40;;;;;;5055249;28;20892;-59
2023/10/07 11:40:30;;;;;;;0.30;0.30;;;22.40;85.80;;;;;;5055419;28;20881;-59
2023/10/07 11:43:04;;;;;;;0.30;0.30;;;22.40;86.10;;;;;;5054069;28;20399;-61
2023/10/07 11:45:32;;;;;;;0.30;0.20;;;22.30;87.10;;;;;;5055282;28;20817;-60
2023/10/07 11:47:58;;;;;;;0.90;0.90;;;22.40;86.60;;;;;;5054184;28;20391;-60
2023/10/07 11:50:27;;;;;;;0.40;0.40;;;22.30;86.20;;;;;;5054651;28;20452;-60
2023/10/07 11:52:53;;;;;;;0.30;0.30;;;22.30;85.80;;;;;;5054415;28;20528;-60
2023/10/07 11:55:18;;;;;;;0.30;0.20;;;22.20;85.80;;;;;;5036262;28;20409;-60
2023/10/07 11:57:45;;;;;;;0.30;0.30;;;22.20;85.40;;;;;;5054031;28;20177;-61
2023/10/07 12:02:57;;;;;;;0.30;0.30;;;22.40;86.00;;;;;;5054853;28;20478;-60
2023/10/07 12:05:27;;;;;;;0.30;0.20;;;22.50;85.10;;;;;;5054277;28;20399;-61
2023/10/07 12:07:59;;;;;;;0.30;0.30;;;22.50;85.40;;;;;;5054487;28;20436;-61
2023/10/07 12:10:26;;;;;;;0.30;0.20;;;22.50;84.60;;;;;;5036467;28;20516;-61
2023/10/07 12:12:52;;;;;;;0.30;0.20;;;22.60;85.40;;;;;;5054547;28;20398;-61
2023/10/07 12:15:18;;;;;;;0.30;0.30;;;22.60;85.70;;;;;;5054067;28;20913;-61
2023/10/07 12:17:44;;;;;;;0.30;0.20;;;22.70;84.50;;;;;;5054154;28;20538;-61
2023/10/07 12:20:13;;;;;;;0.30;0.20;;;22.70;84.70;;;;;;5052265;28;20250;-62
2023/10/07 12:22:42;;;;;;;0.30;0.30;;;22.70;85.10;;;;;;5053819;28;20999;-61
2023/10/07 12:25:18;;;;;;;0.37;0.37;;;22.70;86.00;;;;;;5053530;28;20454;-60
2023/10/07 12:27:45;;;;;;;0.30;0.30;;;22.80;87.00;;;;;;5054635;28;20401;-60
2023/10/07 12:30:11;;;;;;;0.30;0.30;;;22.70;84.70;;;;;;5054093;28;20770;-60
2023/10/07 12:32:39;;;;;;;0.97;0.40;;;22.60;85.00;;;;;;5054328;28;20467;-60
2023/10/07 12:35:05;;;;;;;0.30;0.30;;;22.60;86.60;;;;;;5053566;28;20940;-61
2023/10/07 12:37:31;;;;;;;0.30;0.20;;;22.60;85.20;;;;;;5054228;28;20436;-60
2023/10/07 12:39:57;;;;;;;1.23;0.70;;;22.60;85.80;;;;;;5053631;28;20821;-61
2023/10/07 12:42:25;;;;;;;0.30;0.30;;;22.70;85.80;;;;;;5054000;28;20173;-61
2023/10/07 12:44:51;;;;;;;1.07;1.03;;;22.80;86.00;;;;;;5053513;28;20246;-61
2023/10/07 12:47:17;;;;;;;0.30;0.20;;;22.70;84.90;;;;;;5036199;28;20823;-61
2023/10/07 12:49:45;;;;;;;0.30;0.20;;;22.80;85.70;;;;;;5053954;28;20555;-61
2023/10/07 12:52:11;;;;;;;1.23;0.40;;;22.80;85.50;;;;;;5053966;28;20181;-60
2023/10/07 12:54:37;;;;;;;0.30;0.30;;;22.90;84.50;;;;;;5053223;28;20399;-60
2023/10/07 12:57:03;;;;;;;0.30;0.20;;;22.80;83.30;;;;;;5053707;28;20884;-60
2023/10/07 12:59:35;;;;;;;0.30;0.30;;;22.80;82.90;;;;;;5053860;28;20398;-61
2023/10/07 13:02:03;;;;;;;0.30;0.20;;;22.70;82.90;;;;;;5037016;28;20280;-60
2023/10/07 13:04:35;;;;;;;0.30;0.30;;;22.70;82.90;;;;;;5053299;28;20423;-60
2023/10/07 13:07:09;;;;;;;0.30;0.20;;;22.70;83.00;;;;;;5053608;28;20874;-60
2023/10/07 13:09:40;;;;;;;0.30;0.30;;;22.80;83.00;;;;;;5053661;28;20592;-60
2023/10/07 13:12:13;;;;;;;0.30;0.20;;;22.80;83.00;;;;;;5036301;28;20733;-61
2023/10/07 13:14:41;;;;;;;0.30;0.20;;;22.80;83.00;;;;;;5053150;28;20452;-61
2023/10/07 13:17:07;;;;;;;0.30;0.27;;;22.90;83.50;;;;;;5053392;28;20412;-61
2023/10/07 13:19:36;;;;;;;0.30;0.30;;;22.90;83.20;;;;;;5053272;28;20412;-61
2023/10/07 13:22:05;;;;;;;0.30;0.20;;;22.90;82.30;;;;;;5053873;28;20770;-60
2023/10/07 13:24:31;;;;;;;0.30;0.30;;;23.00;82.40;;;;;;5052516;28;20390;-61
2023/10/07 13:26:57;;;;;;;0.30;0.20;;;22.90;82.90;;;;;;5052730;28;20752;-61
2023/10/07 13:29:23;;;;;;;0.30;0.20;;;22.90;82.50;;;;;;5052972;28;20430;-61
2023/10/07 13:31:50;;;;;;;0.30;0.30;;;23.00;82.90;;;;;;5052869;28;20169;-60
2023/10/07 13:34:17;;;;;;;0.30;0.30;;;23.10;82.70;;;;;;5052725;28;20180;-61
2023/10/07 13:36:43;;;;;;;0.33;0.33;;;23.20;82.50;;;;;;5053322;28;20442;-61
2023/10/07 13:39:15;;;;;;;0.30;0.20;;;23.30;81.40;;;;;;5053000;28;20390;-61
2023/10/07 13:41:45;;;;;;;0.30;0.23;;;23.40;81.80;;;;;;5053143;28;20425;-61
2023/10/07 13:44:16;;;;;;;0.37;0.23;;;23.40;81.20;;;;;;5052686;28;20435;-61
2023/10/07 13:46:42;;;;;;;0.30;0.30;;;23.40;79.20;;;;;;5052718;28;20492;-60
2023/10/07 13:49:14;;;;;;;0.30;0.20;;;23.30;79.40;;;;;;5053041;28;20528;-60
2023/10/07 13:51:43;;;;;;;0.30;0.30;;;23.30;80.40;;;;;;5052762;28;20412;-61
2023/10/07 13:54:22;;;;;;;0.30;0.30;;;23.30;79.80;;;;;;5052731;28;20391;-61
2023/10/07 13:56:49;;;;;;;0.30;0.30;;;23.20;80.80;;;;;;5052961;28;20420;-61
2023/10/07 13:59:15;;;;;;;0.30;0.20;;;23.30;80.90;;;;;;5052935;28;20391;-60
2023/10/07 14:01:44;;;;;;;0.40;0.40;;;23.30;81.20;;;;;;5052749;28;20425;-60
2023/10/07 14:04:14;;;;;;;0.40;0.40;;;23.40;80.60;;;;;;5052551;28;20775;-61
2023/10/07 14:06:43;;;;;;;0.30;0.20;;;23.20;79.00;;;;;;5052762;28;20403;-60
2023/10/07 14:09:16;;;;;;;0.50;0.40;;;23.10;78.90;;;;;;5053208;28;20809;-61
2023/10/07 14:11:46;;;;;;;0.47;0.47;;;22.90;79.40;;;;;;5053043;28;20446;-60
2023/10/07 14:14:13;;;;;;;0.30;0.20;;;22.80;81.10;;;;;;5052630;28;20404;-61
2023/10/07 14:16:40;;;;;;;0.30;0.30;;;22.60;82.30;;;;;;5052503;28;20826;-61
2023/10/07 14:19:06;;;;;;;0.43;0.43;;;22.50;82.40;;;;;;5052956;28;20419;-60
2023/10/07 14:21:32;;;;;;;0.30;0.30;;;22.40;83.30;;;;;;5052809;28;20481;-61
2023/10/07 14:24:03;;;;;;;0.30;0.20;;;22.40;84.00;;;;;;5054561;28;20730;-60
2023/10/07 14:26:33;;;;;;;0.30;0.30;;;22.40;84.10;;;;;;5056372;28;20525;-61
2023/10/07 14:29:02;;;;;;;0.70;0.40;;;22.40;84.00;;;;;;5056456;28;20425;-61
2023/10/07 14:31:28;;;;;;;0.30;0.30;;;22.40;83.50;;;;;;5055889;28;20418;-61
2023/10/07 14:33:54;;;;;;;0.30;0.20;;;22.40;83.80;;;;;;5056072;28;20491;-61
2023/10/07 14:36:21;;;;;;;0.50;0.50;;;22.40;83.80;;;;;;5038926;28;20433;-61
2023/10/07 14:38:53;;;;;;;2.00;0.30;;;22.40;83.70;;;;;;5056293;28;20447;-61
2023/10/07 14:41:19;;;;;;;0.30;0.30;;;22.50;84.50;;;;;;5056288;28;20409;-61
2023/10/07 14:43:45;;;;;;;0.30;0.30;;;22.50;84.90;;;;;;5055925;28;20411;-61
2023/10/07 14:46:11;;;;;;;0.43;0.43;;;22.50;85.20;;;;;;5055796;28;20462;-61
2023/10/07 14:48:44;;;;;;;0.30;0.30;;;22.40;85.70;;;;;;5056053;28;20665;-61
2023/10/07 14:51:10;;;;;;;0.30;0.20;;;22.40;85.80;;;;;;5056329;28;20628;-61
2023/10/07 14:53:36;;;;;;;0.30;0.20;;;22.40;86.00;;;;;;5056120;28;20389;-65
2023/10/07 14:56:16;;;;;;;0.30;0.30;;;22.40;86.10;;;;;;5055973;28;20227;-61
2023/10/07 14:58:43;;;;;;;0.30;0.20;;;22.30;86.00;;;;;;5055929;28;20400;-62
2023/10/07 15:01:14;;;;;;;0.30;0.30;;;22.30;85.80;;;;;;5056055;28;20423;-62
2023/10/07 15:03:43;;;;;;;0.57;0.57;;;22.20;86.10;;;;;;5055499;28;20423;-62
2023/10/07 15:06:11;;;;;;;0.30;0.30;;;22.20;86.20;;;;;;5055735;28;20422;-61
2023/10/07 15:08:39;;;;;;;0.30;0.27;;;22.20;86.80;;;;;;5055543;28;20527;-61
2023/10/07 15:11:05;;;;;;;0.30;0.30;;;22.20;87.10;;;;;;5055781;28;20455;-61
2023/10/07 15:13:34;;;;;;;0.40;0.40;;;22.20;87.10;;;;;;5055262;28;20765;-62
2023/10/07 15:16:13;;;;;;;0.30;0.20;;;22.20;87.00;;;;;;5037057;28;20520;-62
2023/10/07 15:18:44;;;;;;;0.60;0.60;;;22.20;87.00;;;;;;5055668;28;21033;-61
2023/10/07 15:21:11;;;;;;;0.30;0.30;;;22.30;87.30;;;;;;5055488;28;20921;-62
2023/10/07 15:23:39;;;;;;;0.30;0.20;;;22.20;87.00;;;;;;5055042;28;20830;-65
2023/10/07 15:26:10;;;;;;;0.30;0.20;;;22.30;87.00;;;;;;5055301;28;20426;-61
2023/10/07 15:28:35;;;;;;;0.30;0.20;;;22.20;86.90;;;;;;5055234;28;20426;-61
2023/10/07 15:31:01;;;;;;;0.30;0.20;;;22.20;86.90;;;;;;5055403;28;20496;-62
2023/10/07 15:33:27;;;;;;;0.30;0.30;;;22.10;86.80;;;;;;5055337;28;20178;-61
2023/10/07 15:35:53;;;;;;;0.30;0.20;;;22.10;87.10;;;;;;5053650;28;20202;-61
2023/10/07 15:38:19;;;;;;;0.30;0.20;;;22.00;87.20;;;;;;5054873;28;20192;-62
2023/10/07 15:40:45;;;;;;;0.30;0.30;;;21.80;87.00;;;;;;5055156;28;20183;-61
2023/10/07 15:43:11;;;;;;;0.80;0.40;;;21.70;86.90;;;;;;5054863;28;20416;-61
2023/10/07 15:45:50;;;;;;;0.30;0.20;;;21.60;86.70;;;;;;5054295;28;20202;-62
2023/10/07 15:48:22;;;;;;;0.30;0.30;;;21.50;86.80;;;;;;5055068;28;20425;-61
2023/10/07 15:50:52;;;;;;;0.30;0.20;;;21.30;86.80;;;;;;5055057;28;20451;-62
2023/10/07 15:53:18;;;;;;;0.50;0.50;;;21.20;87.10;;;;;;5054812;28;20447;-61
2023/10/07 15:55:44;;;;;;;0.40;0.40;;;21.10;87.40;;;;;;5054514;28;20420;-60
2023/10/07 15:58:10;;;;;;;0.30;0.20;;;21.00;87.80;;;;;;5055048;28;20401;-61
2023/10/07 16:00:38;;;;;;;0.30;0.30;;;20.90;88.00;;;;;;5054829;28;20182;-61
2023/10/07 16:03:06;;;;;;;0.40;0.40;;;20.80;88.20;;;;;;5054887;28;20412;-61
2023/10/07 16:05:34;;;;;;;0.30;0.30;;;20.60;88.80;;;;;;5054109;28;20436;-61
2023/10/07 16:08:06;;;;;;;0.30;0.30;;;20.50;89.80;;;;;;5054407;28;20889;-61
2023/10/07 16:10:36;;;;;;;0.40;0.40;;;20.40;90.10;;;;;;5054882;28;20972;-61
2023/10/07 16:13:02;;;;;;;0.40;0.40;;;20.30;90.20;;;;;;5054797;28;20838;-61
2023/10/07 16:15:27;;;;;;;0.50;0.50;;;20.20;90.40;;;;;;5053824;28;20440;-61
2023/10/07 16:17:57;;;;;;;0.40;0.33;;;20.10;90.70;;;;;;5054487;28;20177;-61
2023/10/07 16:20:23;;;;;;;0.30;0.30;;;20.00;90.80;;;;;;5054510;28;20173;-61
2023/10/07 16:22:59;;;;;;;0.40;0.40;;;19.90;90.90;;;;;;5054209;28;20469;-61
2023/10/07 16:25:32;;;;;;;0.40;0.40;;;19.80;91.00;;;;;;5054018;28;20443;-61
2023/10/07 16:27:57;;;;;;;0.30;0.30;;;19.70;91.30;;;;;;5054354;28;20469;-61
2023/10/07 16:30:23;;;;;;;0.30;0.30;;;19.60;91.30;;;;;;5054014;28;20422;-62
2023/10/07 16:32:49;;;;;;;0.30;0.20;;;19.50;91.30;;;;;;5035854;28;20186;-61
2023/10/07 16:35:15;;;;;;;0.57;0.40;;;19.40;91.40;;;;;;5053170;28;20225;-61
2023/10/07 16:37:41;;;;;;;0.30;0.30;;;19.30;91.80;;;;;;5053963;28;20403;-62
2023/10/07 16:40:07;;;;;;;0.30;0.30;;;19.30;92.30;;;;;;5053994;28;20416;-62
2023/10/07 16:42:36;;;;;;;0.30;0.30;;;19.10;92.70;;;;;;5054079;28;20477;-61
2023/10/07 16:45:05;;;;;;;0.37;0.37;;;19.00;93.00;;;;;;5053372;28;20841;-61
2023/10/07 16:47:34;;;;;;;0.30;0.30;;;18.90;93.60;;;;;;5053349;28;20698;-61
2023/10/07 16:49:59;;;;;;;0.40;0.40;;;18.80;93.70;;;;;;5053735;28;20451;-61
2023/10/07 16:52:28;;;;;;;0.30;0.20;;;18.70;93.80;;;;;;5053896;28;20412;-61
2023/10/07 16:54:56;;;;;;;0.50;0.50;;;18.70;94.00;;;;;;5053339;28;20189;-61
2023/10/07 16:57:23;;;;;;;0.30;0.30;;;18.50;94.10;;;;;;5053840;28;20755;-61
2023/10/07 16:59:49;;;;;;;0.30;0.30;;;18.50;94.60;;;;;;5053401;28;20946;-61
2023/10/07 17:02:15;;;;;;;0.30;0.30;;;18.40;94.40;;;;;;5053590;28;20845;-61
2023/10/07 17:04:41;;;;;;;0.30;0.30;;;18.30;94.90;;;;;;5053083;28;20433;-61
2023/10/07 17:07:07;;;;;;;0.30;0.30;;;18.20;95.50;;;;;;5053227;28;20547;-61
2023/10/07 17:09:34;;;;;;;0.30;0.20;;;18.20;96.30;;;;;;5053720;28;20455;-61
2023/10/07 17:12:00;;;;;;;0.30;0.30;;;18.10;96.90;;;;;;5053535;28;20493;-62
2023/10/07 17:14:26;;;;;;;0.30;0.30;;;18.10;97.30;;;;;;5052561;28;20506;-62
2023/10/07 17:16:51;;;;;;;0.30;0.30;;;18.00;97.30;;;;;;5053422;28;20180;-61
2023/10/07 17:19:17;;;;;;;0.30;0.30;;;17.90;97.50;;;;;;5053439;28;20408;-61
2023/10/07 17:21:42;;;;;;;0.30;0.30;;;17.80;97.70;;;;;;5053320;28;20208;-61
2023/10/07 17:24:08;;;;;;;0.30;0.30;;;17.70;98.00;;;;;;5035226;28;20536;-60
2023/10/07 17:26:36;;;;;;;0.43;0.43;;;17.60;98.30;;;;;;5053323;28;20208;-60
2023/10/07 17:29:04;;;;;;;0.30;0.20;;;17.60;98.60;;;;;;5052754;28;20943;-60
2023/10/07 17:31:31;;;;;;;0.30;0.30;;;17.50;98.80;;;;;;5052729;28;20453;-62